N4710F KOCH-KGLS
Flight info
| Callsign | N4710F |
|---|---|
| Flight time | 0h 57m |
| Altitude | 5000 |
| Route | LFK DAS MHF |
| Aircraft | DA50/L-VGDW/C |
Departure
| Time | 2026-05-04 02:49 |
|---|---|
| Airport | A L Mangham Jr. Regional Airport (KOCH) |
Arrival
| Time | 2026-05-04 03:46 |
|---|---|
| Airport | Scholes International At Galveston Airport (KGLS) |
| Time | Latitude | Longitude | Altitude | Speed | Heading |
|---|---|---|---|---|---|
| 2026-05-04 02:39 | 31.57898 | -94.70669 | 348 ft | 0 kts | 332° |
| 2026-05-04 02:44 | 31.57903 | -94.70671 | 348 ft | 3 kts | 343° |
| 2026-05-04 02:44 | 31.57941 | -94.70706 | 347 ft | 9 kts | 315° |
| 2026-05-04 02:44 | 31.57983 | -94.70753 | 347 ft | 8 kts | 283° |
| 2026-05-04 02:45 | 31.57989 | -94.70838 | 345 ft | 9 kts | 285° |
| 2026-05-04 02:45 | 31.58047 | -94.70861 | 344 ft | 11 kts | 10° |
| 2026-05-04 02:45 | 31.58139 | -94.70850 | 344 ft | 15 kts | 3° |
| 2026-05-04 02:45 | 31.58256 | -94.70840 | 343 ft | 18 kts | 6° |
| 2026-05-04 02:46 | 31.58391 | -94.70828 | 343 ft | 16 kts | 359° |
| 2026-05-04 02:46 | 31.58451 | -94.70851 | 343 ft | 8 kts | 287° |
| 2026-05-04 02:46 | 31.58453 | -94.70862 | 342 ft | 0 kts | 277° |
| 2026-05-04 02:47 | 31.58453 | -94.70863 | 342 ft | 0 kts | 267° |
| 2026-05-04 02:48 | 31.58455 | -94.70895 | 340 ft | 4 kts | 277° |
| 2026-05-04 02:48 | 31.58445 | -94.70943 | 337 ft | 6 kts | 225° |
| 2026-05-04 02:48 | 31.58319 | -94.70970 | 337 ft | 37 kts | 181° |
| 2026-05-04 02:48 | 31.57899 | -94.71010 | 340 ft | 79 kts | 182° |
| 2026-05-04 02:49 | 31.57320 | -94.71046 | 450 ft | 83 kts | 182° |
| 2026-05-04 02:49 | 31.56752 | -94.71098 | 681 ft | 80 kts | 183° |
| 2026-05-04 02:49 | 31.56204 | -94.71155 | 910 ft | 79 kts | 183° |
| 2026-05-04 02:49 | 31.55659 | -94.71200 | 1138 ft | 79 kts | 180° |
| 2026-05-04 02:50 | 31.55111 | -94.71179 | 1356 ft | 80 kts | 173° |
| 2026-05-04 02:50 | 31.54561 | -94.71110 | 1582 ft | 79 kts | 171° |
| 2026-05-04 02:50 | 31.54007 | -94.71039 | 1776 ft | 86 kts | 173° |
| 2026-05-04 02:50 | 31.53400 | -94.70965 | 2096 ft | 84 kts | 173° |
| 2026-05-04 02:51 | 31.52802 | -94.70911 | 2357 ft | 90 kts | 176° |
| 2026-05-04 02:51 | 31.52199 | -94.70886 | 2681 ft | 88 kts | 179° |
| 2026-05-04 02:51 | 31.51587 | -94.70878 | 2998 ft | 87 kts | 176° |
| 2026-05-04 02:51 | 31.50978 | -94.70849 | 3255 ft | 90 kts | 177° |
| 2026-05-04 02:52 | 31.50350 | -94.70807 | 3540 ft | 91 kts | 178° |
| 2026-05-04 02:52 | 31.49717 | -94.70835 | 3814 ft | 92 kts | 182° |
| 2026-05-04 02:52 | 31.49085 | -94.70879 | 4095 ft | 92 kts | 183° |
| 2026-05-04 02:52 | 31.48438 | -94.70925 | 4377 ft | 93 kts | 183° |
| 2026-05-04 02:53 | 31.47799 | -94.70970 | 4650 ft | 93 kts | 183° |
| 2026-05-04 02:53 | 31.47155 | -94.71014 | 4911 ft | 94 kts | 183° |
| 2026-05-04 02:53 | 31.46440 | -94.71063 | 5004 ft | 114 kts | 183° |
| 2026-05-04 02:53 | 31.45564 | -94.71054 | 5018 ft | 135 kts | 174° |
| 2026-05-04 02:54 | 31.44566 | -94.70983 | 5009 ft | 149 kts | 176° |
| 2026-05-04 02:54 | 31.43509 | -94.70939 | 5002 ft | 157 kts | 177° |
| 2026-05-04 02:54 | 31.42401 | -94.70921 | 4998 ft | 161 kts | 178° |
| 2026-05-04 02:54 | 31.41270 | -94.70924 | 4996 ft | 163 kts | 179° |
| 2026-05-04 02:55 | 31.39000 | -94.70963 | 4993 ft | 165 kts | 179° |
| 2026-05-04 02:55 | 31.37842 | -94.70992 | 4992 ft | 165 kts | 179° |
| 2026-05-04 02:55 | 31.36701 | -94.71025 | 4991 ft | 165 kts | 179° |
| 2026-05-04 02:56 | 31.35562 | -94.71062 | 4991 ft | 165 kts | 179° |
| 2026-05-04 02:56 | 31.34415 | -94.71097 | 4990 ft | 165 kts | 179° |
| 2026-05-04 02:56 | 31.33266 | -94.71133 | 4990 ft | 165 kts | 179° |
| 2026-05-04 02:56 | 31.32120 | -94.71169 | 4990 ft | 165 kts | 179° |
| 2026-05-04 02:57 | 31.30969 | -94.71205 | 4990 ft | 165 kts | 179° |
| 2026-05-04 02:57 | 31.29821 | -94.71242 | 4991 ft | 165 kts | 179° |
| 2026-05-04 02:57 | 31.28675 | -94.71279 | 4991 ft | 165 kts | 179° |
| 2026-05-04 02:57 | 31.27535 | -94.71317 | 4991 ft | 165 kts | 179° |
| 2026-05-04 02:58 | 31.26386 | -94.71354 | 4991 ft | 165 kts | 179° |
| 2026-05-04 02:58 | 31.25243 | -94.71391 | 4991 ft | 165 kts | 179° |
| 2026-05-04 02:58 | 31.24101 | -94.71429 | 4991 ft | 165 kts | 179° |
| 2026-05-04 02:58 | 31.22953 | -94.71466 | 4991 ft | 165 kts | 179° |
| 2026-05-04 02:59 | 31.21797 | -94.71503 | 4991 ft | 165 kts | 179° |
| 2026-05-04 02:59 | 31.20654 | -94.71542 | 4991 ft | 165 kts | 179° |
| 2026-05-04 02:59 | 31.19513 | -94.71580 | 4991 ft | 165 kts | 179° |
| 2026-05-04 02:59 | 31.18376 | -94.71617 | 4991 ft | 165 kts | 179° |
| 2026-05-04 03:00 | 31.17220 | -94.71654 | 4991 ft | 165 kts | 179° |
| 2026-05-04 03:00 | 31.16081 | -94.71642 | 4992 ft | 164 kts | 174° |
| 2026-05-04 03:00 | 31.14929 | -94.71573 | 4991 ft | 165 kts | 173° |
| 2026-05-04 03:00 | 31.13789 | -94.71494 | 4991 ft | 165 kts | 173° |
| 2026-05-04 03:01 | 31.12656 | -94.71413 | 4991 ft | 165 kts | 173° |
| 2026-05-04 03:01 | 31.11502 | -94.71330 | 4991 ft | 164 kts | 173° |
| 2026-05-04 03:01 | 31.10361 | -94.71246 | 4991 ft | 164 kts | 173° |
| 2026-05-04 03:01 | 31.09225 | -94.71162 | 4991 ft | 164 kts | 173° |
| 2026-05-04 03:02 | 31.08093 | -94.71078 | 4991 ft | 164 kts | 173° |
| 2026-05-04 03:02 | 31.06937 | -94.70991 | 4991 ft | 165 kts | 173° |
| 2026-05-04 03:02 | 31.05807 | -94.70908 | 4991 ft | 165 kts | 173° |
| 2026-05-04 03:02 | 31.04658 | -94.70822 | 4991 ft | 165 kts | 173° |
| 2026-05-04 03:03 | 31.03514 | -94.70737 | 4991 ft | 165 kts | 173° |
| 2026-05-04 03:03 | 31.02374 | -94.70653 | 4991 ft | 164 kts | 173° |
| 2026-05-04 03:03 | 31.01236 | -94.70568 | 4991 ft | 164 kts | 173° |
| 2026-05-04 03:03 | 31.00093 | -94.70483 | 4991 ft | 164 kts | 173° |
| 2026-05-04 03:04 | 30.98960 | -94.70399 | 4991 ft | 164 kts | 173° |
| 2026-05-04 03:04 | 30.97826 | -94.70314 | 4991 ft | 164 kts | 173° |
| 2026-05-04 03:04 | 30.96692 | -94.70230 | 4991 ft | 164 kts | 173° |
| 2026-05-04 03:04 | 30.95557 | -94.70145 | 4991 ft | 163 kts | 173° |
| 2026-05-04 03:05 | 30.94428 | -94.70061 | 4991 ft | 163 kts | 173° |
| 2026-05-04 03:05 | 30.93292 | -94.69978 | 4991 ft | 163 kts | 173° |
| 2026-05-04 03:05 | 30.92159 | -94.69893 | 4991 ft | 163 kts | 173° |
| 2026-05-04 03:05 | 30.91031 | -94.69810 | 4991 ft | 163 kts | 173° |
| 2026-05-04 03:06 | 30.89900 | -94.69726 | 4991 ft | 162 kts | 173° |
| 2026-05-04 03:06 | 30.88775 | -94.69642 | 4990 ft | 162 kts | 173° |
| 2026-05-04 03:06 | 30.87657 | -94.69559 | 4989 ft | 162 kts | 174° |
| 2026-05-04 03:06 | 30.86522 | -94.69475 | 4990 ft | 162 kts | 174° |
| 2026-05-04 03:07 | 30.85410 | -94.69392 | 4990 ft | 162 kts | 174° |
| 2026-05-04 03:07 | 30.84290 | -94.69309 | 4990 ft | 162 kts | 174° |
| 2026-05-04 03:07 | 30.83157 | -94.69225 | 4991 ft | 162 kts | 174° |
| 2026-05-04 03:07 | 30.82672 | -94.69190 | 4991 ft | 162 kts | 174° |
| 2026-05-04 03:08 | 30.81545 | -94.69106 | 4991 ft | 162 kts | 174° |
| 2026-05-04 03:08 | 30.80422 | -94.69022 | 4992 ft | 162 kts | 174° |
| 2026-05-04 03:08 | 30.79299 | -94.68939 | 4992 ft | 162 kts | 174° |
| 2026-05-04 03:08 | 30.78163 | -94.68855 | 4992 ft | 162 kts | 174° |
| 2026-05-04 03:09 | 30.77045 | -94.68772 | 4993 ft | 162 kts | 174° |
| 2026-05-04 03:09 | 30.75912 | -94.68688 | 4993 ft | 162 kts | 174° |
| 2026-05-04 03:09 | 30.74787 | -94.68605 | 4993 ft | 162 kts | 174° |
| 2026-05-04 03:09 | 30.73669 | -94.68523 | 4994 ft | 162 kts | 174° |
| 2026-05-04 03:10 | 30.72542 | -94.68439 | 4994 ft | 162 kts | 175° |
| 2026-05-04 03:10 | 30.71420 | -94.68356 | 4994 ft | 162 kts | 175° |
| 2026-05-04 03:10 | 30.70283 | -94.68274 | 4995 ft | 162 kts | 174° |
| 2026-05-04 03:10 | 30.69160 | -94.68192 | 4996 ft | 162 kts | 174° |
| 2026-05-04 03:11 | 30.68035 | -94.68109 | 4997 ft | 162 kts | 174° |
| 2026-05-04 03:11 | 30.66912 | -94.68027 | 4998 ft | 162 kts | 174° |
| 2026-05-04 03:11 | 30.65779 | -94.67944 | 4999 ft | 162 kts | 174° |
| 2026-05-04 03:11 | 30.64661 | -94.67861 | 5000 ft | 162 kts | 173° |
| 2026-05-04 03:12 | 30.63549 | -94.67779 | 5001 ft | 161 kts | 173° |
| 2026-05-04 03:12 | 30.62427 | -94.67696 | 5002 ft | 161 kts | 173° |
| 2026-05-04 03:12 | 30.61314 | -94.67603 | 5007 ft | 157 kts | 175° |
| 2026-05-04 03:12 | 30.60239 | -94.67522 | 5004 ft | 154 kts | 176° |
| 2026-05-04 03:13 | 30.59170 | -94.67445 | 5005 ft | 152 kts | 177° |
| 2026-05-04 03:13 | 30.58129 | -94.67369 | 5006 ft | 151 kts | 177° |
| 2026-05-04 03:13 | 30.57081 | -94.67293 | 5008 ft | 151 kts | 177° |
| 2026-05-04 03:13 | 30.56025 | -94.67217 | 5009 ft | 151 kts | 178° |
| 2026-05-04 03:14 | 30.54979 | -94.67141 | 5010 ft | 151 kts | 178° |
| 2026-05-04 03:14 | 30.53929 | -94.67065 | 5010 ft | 151 kts | 178° |
| 2026-05-04 03:14 | 30.52875 | -94.66988 | 5010 ft | 151 kts | 178° |
| 2026-05-04 03:14 | 30.51819 | -94.66911 | 5010 ft | 151 kts | 178° |
| 2026-05-04 03:15 | 30.50781 | -94.66835 | 5010 ft | 151 kts | 178° |
| 2026-05-04 03:15 | 30.49722 | -94.66757 | 5010 ft | 151 kts | 178° |
| 2026-05-04 03:15 | 30.48664 | -94.66679 | 5010 ft | 151 kts | 178° |
| 2026-05-04 03:15 | 30.47612 | -94.66602 | 5010 ft | 152 kts | 178° |
| 2026-05-04 03:16 | 30.46573 | -94.66525 | 5010 ft | 152 kts | 178° |
| 2026-05-04 03:16 | 30.45514 | -94.66447 | 5010 ft | 152 kts | 178° |
| 2026-05-04 03:16 | 30.44459 | -94.66370 | 5010 ft | 152 kts | 178° |
| 2026-05-04 03:16 | 30.43406 | -94.66293 | 5010 ft | 152 kts | 178° |
| 2026-05-04 03:17 | 30.42355 | -94.66215 | 5010 ft | 152 kts | 178° |
| 2026-05-04 03:17 | 30.41304 | -94.66138 | 5010 ft | 152 kts | 178° |
| 2026-05-04 03:17 | 30.40252 | -94.66061 | 5011 ft | 152 kts | 178° |
| 2026-05-04 03:17 | 30.39210 | -94.65984 | 5011 ft | 152 kts | 178° |
| 2026-05-04 03:18 | 30.38151 | -94.65906 | 5011 ft | 152 kts | 178° |
| 2026-05-04 03:18 | 30.37098 | -94.65829 | 5012 ft | 152 kts | 178° |
| 2026-05-04 03:18 | 30.36042 | -94.65752 | 5012 ft | 152 kts | 178° |
| 2026-05-04 03:18 | 30.34978 | -94.65674 | 5013 ft | 152 kts | 178° |
| 2026-05-04 03:19 | 30.33922 | -94.65597 | 5013 ft | 152 kts | 178° |
| 2026-05-04 03:19 | 30.32865 | -94.65519 | 5014 ft | 152 kts | 178° |
| 2026-05-04 03:19 | 30.31811 | -94.65442 | 5014 ft | 153 kts | 178° |
| 2026-05-04 03:19 | 30.30748 | -94.65363 | 5015 ft | 153 kts | 178° |
| 2026-05-04 03:20 | 30.29688 | -94.65286 | 5015 ft | 152 kts | 178° |
| 2026-05-04 03:20 | 30.28638 | -94.65209 | 5016 ft | 152 kts | 178° |
| 2026-05-04 03:20 | 30.27578 | -94.65131 | 5016 ft | 152 kts | 178° |
| 2026-05-04 03:20 | 30.26514 | -94.65054 | 5017 ft | 152 kts | 178° |
| 2026-05-04 03:21 | 30.25461 | -94.64977 | 5017 ft | 152 kts | 178° |
| 2026-05-04 03:21 | 30.24408 | -94.64899 | 5018 ft | 152 kts | 178° |
| 2026-05-04 03:21 | 30.23343 | -94.64821 | 5018 ft | 152 kts | 178° |
| 2026-05-04 03:21 | 30.22292 | -94.64745 | 5018 ft | 153 kts | 178° |
| 2026-05-04 03:22 | 30.21228 | -94.64666 | 5017 ft | 153 kts | 178° |
| 2026-05-04 03:22 | 30.20176 | -94.64590 | 5017 ft | 153 kts | 178° |
| 2026-05-04 03:22 | 30.19113 | -94.64557 | 5011 ft | 152 kts | 186° |
| 2026-05-04 03:22 | 30.18070 | -94.64690 | 5015 ft | 151 kts | 188° |
| 2026-05-04 03:23 | 30.17026 | -94.64840 | 5015 ft | 151 kts | 188° |
| 2026-05-04 03:23 | 30.15983 | -94.64997 | 5015 ft | 151 kts | 188° |
| 2026-05-04 03:23 | 30.14943 | -94.65158 | 5014 ft | 151 kts | 189° |
| 2026-05-04 03:23 | 30.13896 | -94.65322 | 5014 ft | 151 kts | 189° |
| 2026-05-04 03:24 | 30.12860 | -94.65485 | 5013 ft | 151 kts | 189° |
| 2026-05-04 03:24 | 30.11818 | -94.65651 | 5013 ft | 151 kts | 189° |
| 2026-05-04 03:24 | 30.10782 | -94.65816 | 5012 ft | 151 kts | 189° |
| 2026-05-04 03:24 | 30.09744 | -94.65981 | 5011 ft | 151 kts | 189° |
| 2026-05-04 03:25 | 30.08704 | -94.66148 | 5011 ft | 151 kts | 189° |
| 2026-05-04 03:25 | 30.07656 | -94.66315 | 5010 ft | 151 kts | 189° |
| 2026-05-04 03:25 | 30.06617 | -94.66481 | 5010 ft | 151 kts | 189° |
| 2026-05-04 03:25 | 30.05590 | -94.66645 | 5010 ft | 151 kts | 189° |
| 2026-05-04 03:26 | 30.04546 | -94.66812 | 5010 ft | 151 kts | 189° |
| 2026-05-04 03:26 | 30.03508 | -94.66978 | 5010 ft | 150 kts | 189° |
| 2026-05-04 03:26 | 30.02469 | -94.67144 | 5011 ft | 150 kts | 189° |
| 2026-05-04 03:26 | 30.01438 | -94.67309 | 5011 ft | 150 kts | 189° |
| 2026-05-04 03:27 | 30.00408 | -94.67474 | 5011 ft | 150 kts | 189° |
| 2026-05-04 03:27 | 29.99372 | -94.67639 | 5011 ft | 150 kts | 189° |
| 2026-05-04 03:27 | 29.98341 | -94.67804 | 5011 ft | 150 kts | 189° |
| 2026-05-04 03:27 | 29.97298 | -94.67970 | 5011 ft | 150 kts | 189° |
| 2026-05-04 03:28 | 29.96272 | -94.68134 | 5012 ft | 150 kts | 189° |
| 2026-05-04 03:28 | 29.95230 | -94.68301 | 5012 ft | 150 kts | 189° |
| 2026-05-04 03:28 | 29.94194 | -94.68466 | 5012 ft | 150 kts | 189° |
| 2026-05-04 03:28 | 29.93165 | -94.68630 | 5012 ft | 150 kts | 189° |
| 2026-05-04 03:29 | 29.92133 | -94.68794 | 5005 ft | 150 kts | 189° |
| 2026-05-04 03:29 | 29.91101 | -94.68959 | 5004 ft | 150 kts | 189° |
| 2026-05-04 03:29 | 29.90065 | -94.69125 | 5003 ft | 150 kts | 189° |
| 2026-05-04 03:29 | 29.89031 | -94.69289 | 5005 ft | 150 kts | 189° |
| 2026-05-04 03:30 | 29.87999 | -94.69454 | 5005 ft | 150 kts | 189° |
| 2026-05-04 03:30 | 29.86966 | -94.69619 | 5005 ft | 150 kts | 189° |
| 2026-05-04 03:30 | 29.85936 | -94.69783 | 5005 ft | 150 kts | 189° |
| 2026-05-04 03:30 | 29.84891 | -94.69949 | 5005 ft | 150 kts | 189° |
| 2026-05-04 03:31 | 29.83862 | -94.70113 | 5004 ft | 150 kts | 189° |
| 2026-05-04 03:31 | 29.82834 | -94.70277 | 5004 ft | 150 kts | 189° |
| 2026-05-04 03:31 | 29.81792 | -94.70443 | 5004 ft | 150 kts | 189° |
| 2026-05-04 03:31 | 29.80759 | -94.70607 | 5004 ft | 150 kts | 189° |
| 2026-05-04 03:32 | 29.79740 | -94.70770 | 5004 ft | 150 kts | 189° |
| 2026-05-04 03:32 | 29.79108 | -94.70870 | 5004 ft | 150 kts | 189° |
| 2026-05-04 03:32 | 29.78066 | -94.71036 | 5004 ft | 150 kts | 189° |
| 2026-05-04 03:32 | 29.77041 | -94.71199 | 5004 ft | 150 kts | 189° |
| 2026-05-04 03:33 | 29.75999 | -94.71365 | 5004 ft | 150 kts | 189° |
| 2026-05-04 03:33 | 29.74970 | -94.71529 | 5004 ft | 150 kts | 189° |
| 2026-05-04 03:33 | 29.73941 | -94.71692 | 5005 ft | 150 kts | 189° |
| 2026-05-04 03:33 | 29.72914 | -94.71854 | 5006 ft | 149 kts | 189° |
| 2026-05-04 03:34 | 29.71884 | -94.72018 | 5007 ft | 149 kts | 189° |
| 2026-05-04 03:34 | 29.70863 | -94.72180 | 5008 ft | 149 kts | 189° |
| 2026-05-04 03:34 | 29.69828 | -94.72344 | 5009 ft | 149 kts | 189° |
| 2026-05-04 03:34 | 29.68801 | -94.72507 | 5010 ft | 149 kts | 189° |
| 2026-05-04 03:35 | 29.67774 | -94.72670 | 5011 ft | 149 kts | 189° |
| 2026-05-04 03:35 | 29.66751 | -94.72832 | 5012 ft | 149 kts | 189° |
| 2026-05-04 03:35 | 29.65729 | -94.72995 | 5012 ft | 149 kts | 189° |
| 2026-05-04 03:35 | 29.64711 | -94.73156 | 5013 ft | 148 kts | 189° |
| 2026-05-04 03:36 | 29.63681 | -94.73319 | 5014 ft | 148 kts | 189° |
| 2026-05-04 03:36 | 29.62656 | -94.73482 | 5015 ft | 148 kts | 189° |
| 2026-05-04 03:36 | 29.61639 | -94.73644 | 5016 ft | 148 kts | 189° |
| 2026-05-04 03:36 | 29.60617 | -94.73805 | 5017 ft | 148 kts | 189° |
| 2026-05-04 03:37 | 29.59604 | -94.73966 | 5018 ft | 148 kts | 189° |
| 2026-05-04 03:37 | 29.58575 | -94.74129 | 5018 ft | 148 kts | 189° |
| 2026-05-04 03:37 | 29.57556 | -94.74290 | 5018 ft | 148 kts | 189° |
| 2026-05-04 03:37 | 29.56541 | -94.74451 | 5018 ft | 148 kts | 189° |
| 2026-05-04 03:38 | 29.55510 | -94.74615 | 5018 ft | 148 kts | 189° |
| 2026-05-04 03:38 | 29.54513 | -94.74851 | 5015 ft | 147 kts | 198° |
| 2026-05-04 03:38 | 29.53531 | -94.75213 | 5017 ft | 147 kts | 199° |
| 2026-05-04 03:38 | 29.52564 | -94.75592 | 5018 ft | 147 kts | 199° |
| 2026-05-04 03:39 | 29.51616 | -94.75998 | 5012 ft | 147 kts | 206° |
| 2026-05-04 03:39 | 29.50790 | -94.76684 | 5013 ft | 146 kts | 223° |
| 2026-05-04 03:39 | 29.50091 | -94.77534 | 5017 ft | 146 kts | 226° |
| 2026-05-04 03:39 | 29.49418 | -94.78399 | 5018 ft | 146 kts | 226° |
| 2026-05-04 03:40 | 29.48727 | -94.79265 | 5018 ft | 146 kts | 226° |
| 2026-05-04 03:40 | 29.48034 | -94.80126 | 5019 ft | 146 kts | 225° |
| 2026-05-04 03:40 | 29.47273 | -94.80901 | 5019 ft | 146 kts | 219° |
| 2026-05-04 03:40 | 29.46486 | -94.81664 | 4943 ft | 150 kts | 219° |
| 2026-05-04 03:41 | 29.45673 | -94.82423 | 4825 ft | 154 kts | 217° |
| 2026-05-04 03:41 | 29.44813 | -94.83185 | 4687 ft | 157 kts | 216° |
| 2026-05-04 03:41 | 29.43938 | -94.83942 | 4517 ft | 160 kts | 216° |
| 2026-05-04 03:41 | 29.43040 | -94.84691 | 4345 ft | 161 kts | 215° |
| 2026-05-04 03:42 | 29.42131 | -94.85452 | 4170 ft | 162 kts | 214° |
| 2026-05-04 03:42 | 29.41223 | -94.86211 | 3995 ft | 162 kts | 214° |
| 2026-05-04 03:42 | 29.40255 | -94.86837 | 3822 ft | 162 kts | 190° |
| 2026-05-04 03:42 | 29.39137 | -94.86863 | 3666 ft | 160 kts | 176° |
| 2026-05-04 03:43 | 29.38036 | -94.86752 | 3489 ft | 159 kts | 174° |
| 2026-05-04 03:43 | 29.36942 | -94.86567 | 3293 ft | 159 kts | 168° |
| 2026-05-04 03:43 | 29.35854 | -94.86317 | 3063 ft | 159 kts | 168° |
| 2026-05-04 03:43 | 29.34770 | -94.86118 | 2822 ft | 156 kts | 173° |
| 2026-05-04 03:44 | 29.33715 | -94.85992 | 2587 ft | 152 kts | 173° |
| 2026-05-04 03:44 | 29.32674 | -94.85850 | 2285 ft | 149 kts | 173° |
| 2026-05-04 03:44 | 29.31664 | -94.85804 | 1969 ft | 140 kts | 180° |
| 2026-05-04 03:44 | 29.30755 | -94.85885 | 1517 ft | 126 kts | 182° |
| 2026-05-04 03:45 | 29.29990 | -94.85895 | 1184 ft | 97 kts | 179° |
| 2026-05-04 03:45 | 29.29356 | -94.85905 | 813 ft | 90 kts | 177° |
| 2026-05-04 03:45 | 29.28774 | -94.85909 | 536 ft | 77 kts | 177° |
| 2026-05-04 03:45 | 29.28293 | -94.85915 | 375 ft | 64 kts | 176° |
| 2026-05-04 03:46 | 29.27864 | -94.85909 | 224 ft | 59 kts | 176° |
| 2026-05-04 03:46 | 29.27455 | -94.85911 | 98 ft | 57 kts | 178° |
| 2026-05-04 03:46 | 29.27063 | -94.85914 | 14 ft | 55 kts | 177° |
| 2026-05-04 03:46 | 29.26772 | -94.85921 | 7 ft | 10 kts | 200° |
| 2026-05-04 03:47 | 29.26787 | -94.85905 | 7 ft | 10 kts | 19° |
| 2026-05-04 03:47 | 29.26794 | -94.85776 | 7 ft | 22 kts | 101° |
| 2026-05-04 03:47 | 29.26720 | -94.85619 | 7 ft | 18 kts | 144° |
| 2026-05-04 03:47 | 29.26576 | -94.85584 | 7 ft | 23 kts | 180° |
| 2026-05-04 03:48 | 29.26483 | -94.85605 | 7 ft | 4 kts | 197° |
| 2026-05-04 03:48 | 29.26464 | -94.85612 | 7 ft | 0 kts | 234° |